Terminal Aerodrome Forecast
Issued by NWS Shreveport, LA

Home | Current Version | Previous Version | Text Only | Print | Product List | Glossary On
Versions: 1 2 3 4 5 6 7 8 9 10 11 12 13
000
FTUS44 KSHV 270500
TAFGGG
TAF
KGGG 270532Z 2706/2806 34004KT P6SM SKC
     FM271400 01006KT P6SM SKC
     FM271800 05006KT P6SM SKC
     FM280000 09003KT P6SM SKC=

USA.gov is the U.S. government's official web portal to all federal, state and local government web resources and services.